Rocky Point, NC (28457)

3:21 PM EDT on April 18, 2015 (GMT -0400)
RollCall9_North Chase | | Change Station
CLOSE
Current Station
Personal Weather Station
Location: Wilmington, NC
Elevation: 30 ft
Nearby Weather Stations

Elev 30 ft 34.30 °N, 77.88 °W | Updated 1 minute ago

Overcast
Overcast
74.3 °F
Feels Like 77 °F
N
0.0
Wind Variable Wind from SE
Gusts 5.4 mph

Today
High -- | Low -- °F
--% Chance of Precip.
Yesterday
High -- | Low -- °F
Precip. -- in
6:36 AM 7:45 PM
New Moon, 0% visible
Pressure 29.97 in
Visibility 10.0 miles
Clouds Few 5500 ft
Overcast 7500 ft
Heat Index 77 °F
Dew Point 47 °F
Humidity 38%
Rainfall 0.04 in
Snow Depth Not available.
UV 3 out of 12
Pollen 7.50 out of 12
Air Quality Not available.
Flu Activity Sporadic
SPECI KILM 181900Z 15005KT 10SM FEW055 OVC075 23/18 A2997 RMK AO2 T02280178

More Conditions Fewer Conditions

Pressure 29.97 in
Visibility 10.0 miles
Clouds Few 5500 ft
Overcast 7500 ft
Heat Index 77 °F
Dew Point 47 °F
Humidity 38%
Rainfall 0.04 in
Snow Depth Not available.
UV 3 out of 12
Pollen 7.50 out of 12
Air Quality Not available.
Flu Activity Sporadic
SPECI KILM 181900Z 15005KT 10SM FEW055 OVC075 23/18 A2997 RMK AO2 T02280178

More Conditions Fewer Conditions

10-Day Weather Forecast

Almanac

Astronomy

Apr. 18, 2015 Rise Set
Actual Time
Civil Twilight
Nautical Twilight
Astronomical Twilight
Moon
Length of Visible Light
Length of Day
Tomorrow will be .
, % of the Moon is Illuminated

Today's Extremes

State Highs State Lows

Community

WunderPhotos

Upload Photos

1,814,501 photos uploaded!

WunderBlogs® & News

Nearby

Air Quality

  Air Quality AQ Index Pollutant
Not available.

Snow Depth

Station Depth Elevation

Earthquake Activity

City Distance Mag. Time & Date
Minimum magnitude displayed is 2.5.

Coastal Water Temperatures

Place Temperature

Stations

Nearby Weather Stations

Station Location Temp. Windchill Dew Point Humidity Wind Precip. Elev Updated Type